createdAt,value
2023-03-14T00:06:40.715Z,72.0
2023-03-14T00:11:55.626Z,72.0
2023-03-14T00:19:57.740Z,73.0
2023-03-14T00:29:17.119Z,74.0
2023-03-14T00:43:17.022Z,76.0
2023-03-14T00:53:59.513Z,77.0
2023-03-14T01:07:08.174Z,78.0
2023-03-14T01:14:58.076Z,78.0
2023-03-14T01:24:28.795Z,78.0
2023-03-14T01:35:52.719Z,78.0
2023-03-14T01:47:33.248Z,78.0
2023-03-14T02:04:11.399Z,78.0
2023-03-14T02:18:57.819Z,79.0
2023-03-14T02:24:35.458Z,79.0
2023-03-14T02:34:04.542Z,79.0
2023-03-14T02:47:11.258Z,79.0
2023-03-14T03:02:06.023Z,79.0
2023-03-14T03:12:11.422Z,79.0
2023-03-14T03:24:11.035Z,79.0
2023-03-14T03:30:21.991Z,79.0
2023-03-14T03:44:54.833Z,80.0
2023-03-14T03:50:23.158Z,80.0
2023-03-14T04:04:23.054Z,80.0
2023-03-14T04:17:38.237Z,80.0
2023-03-14T04:30:44.255Z,82.0
2023-03-14T04:40:58.565Z,84.0
2023-03-14T05:03:13.420Z,86.0
2023-03-14T05:07:53.759Z,86.0
2023-03-14T05:13:07.311Z,87.0
2023-03-14T05:20:16.301Z,87.0
2023-03-14T05:34:15.789Z,89.0
2023-03-14T05:43:22.310Z,90.0
2023-03-14T05:49:59.735Z,89.0
2023-03-14T06:04:27.467Z,89.0
2023-03-14T06:12:27.636Z,88.0
2023-03-14T06:27:27.122Z,88.0
2023-03-14T06:43:09.484Z,89.0
2023-03-14T07:00:38.376Z,92.0
2023-03-14T07:15:38.979Z,94.0
2023-03-14T07:30:38.949Z,95.0
2023-03-14T07:39:57.986Z,95.0
2023-03-14T07:55:28.799Z,95.0
2023-03-14T08:04:08.761Z,95.0
2023-03-14T08:19:09.094Z,95.0
2023-03-14T08:26:05.279Z,95.0
2023-03-14T08:41:06.194Z,95.0
2023-03-14T08:56:06.121Z,95.0
2023-03-14T09:11:07.306Z,95.0
2023-03-14T09:26:06.554Z,95.0
2023-03-14T09:42:13.730Z,95.0
2023-03-14T09:57:13.788Z,94.0
2023-03-14T10:11:42.918Z,95.0
2023-03-14T10:17:40.222Z,95.0
2023-03-14T10:32:40.159Z,96.0
2023-03-14T10:47:40.144Z,96.0
2023-03-14T10:51:55.683Z,96.0
2023-03-14T11:08:28.475Z,96.0
2023-03-14T11:26:20.203Z,97.0
2023-03-14T11:39:06.231Z,96.0
2023-03-14T11:55:13.619Z,96.0
2023-03-14T12:14:44.667Z,96.0
2023-03-14T12:22:47.615Z,95.0
2023-03-14T12:29:22.775Z,94.0
2023-03-14T12:37:32.102Z,94.0
2023-03-14T12:46:42.308Z,93.0
2023-03-14T13:01:42.654Z,90.0
2023-03-14T13:05:23.908Z,89.0
2023-03-14T13:22:41.955Z,82.0
2023-03-14T13:29:28.236Z,82.0
2023-03-14T13:36:20.270Z,83.0
2023-03-14T13:55:42.277Z,80.0
2023-03-14T14:08:10.570Z,79.0
2023-03-14T14:24:10.562Z,75.0
2023-03-14T14:42:04.809Z,71.0
2023-03-14T15:07:32.996Z,71.0
2023-03-14T15:20:13.561Z,75.0
2023-03-14T15:26:47.447Z,75.0
2023-03-14T15:49:53.999Z,78.0
2023-03-14T16:04:53.912Z,79.0
2023-03-14T16:13:39.436Z,81.0
2023-03-14T16:21:17.612Z,82.0
2023-03-14T16:38:51.063Z,85.0
2023-03-14T16:55:33.516Z,86.0
2023-03-14T17:10:33.439Z,87.0
2023-03-14T17:16:19.796Z,87.0
2023-03-14T17:27:04.107Z,88.0
2023-03-14T17:42:03.877Z,89.0
2023-03-14T17:57:03.888Z,89.0
2023-03-14T18:11:47.235Z,89.0
2023-03-14T18:17:45.965Z,89.0
2023-03-14T18:24:02.177Z,89.0
2023-03-14T18:38:04.890Z,89.0
2023-03-14T18:52:02.379Z,89.0
2023-03-14T19:10:22.032Z,89.0
2023-03-14T19:17:13.732Z,89.0
2023-03-14T19:23:24.359Z,89.0
2023-03-14T19:27:16.508Z,89.0
2023-03-14T19:46:23.996Z,92.0
2023-03-14T19:50:45.628Z,92.0
2023-03-14T20:00:00.667Z,93.0
2023-03-14T20:09:27.564Z,94.0
2023-03-14T20:23:27.555Z,94.0
2023-03-14T20:42:05.484Z,96.0
2023-03-14T20:50:14.667Z,95.0
2023-03-14T21:04:15.169Z,96.0
2023-03-14T21:18:15.641Z,97.0
2023-03-14T21:27:40.426Z,97.0
2023-03-14T21:42:36.649Z,97.0
2023-03-14T21:57:50.891Z,98.0
2023-03-14T22:05:20.061Z,97.0
2023-03-14T22:11:36.592Z,97.0
2023-03-14T22:29:06.988Z,98.0
2023-03-14T22:34:57.408Z,97.0
2023-03-14T22:39:36.061Z,97.0
